Terminal Aerodrome Forecast
Issued by NWS

Home | Current Version | Previous Version | Text Only | Print | Product List | Glossary On
Versions: 1 2 3 4 5 6 7 8 9 10 11 12 13 14 15 16 17 18 19
118
FTUS43 KICT 232320
TAFRSL
TAF
KRSL 232320Z 2400/2424 06006KT P6SM FEW200
     FM241000 VRB05KT P6SM SCT100
     FM241500 31005KT 6SM -SHRA BKN060
     FM241800 33010KT 6SM -SHRA OVC020
     FM242200 34010KT 6SM -SHRA OVC015=

USA.gov is the U.S. government's official web portal to all federal, state and local government web resources and services.